createdAt,value
2023-07-25T00:00:32.623Z,2.08
2023-07-25T00:03:00.833Z,2.60
2023-07-25T00:05:29.221Z,2.42
2023-07-25T00:07:58.684Z,2.83
2023-07-25T00:10:26.807Z,3.13
2023-07-25T00:12:56.275Z,3.13
2023-07-25T00:15:24.540Z,3.00
2023-07-25T00:17:52.748Z,3.38
2023-07-25T00:20:21.100Z,2.67
2023-07-25T00:22:49.227Z,2.60
2023-07-25T00:25:19.823Z,2.42
2023-07-25T00:27:48.059Z,2.35
2023-07-25T00:30:16.299Z,2.47
2023-07-25T00:32:44.519Z,3.05
2023-07-25T00:35:12.685Z,3.30
2023-07-25T00:37:40.789Z,3.25
2023-07-25T00:40:10.029Z,2.70
2023-07-25T00:42:39.546Z,3.05
2023-07-25T00:45:09.297Z,2.95
2023-07-25T00:47:37.634Z,2.60
2023-07-25T00:50:06.543Z,2.83
2023-07-25T00:52:34.770Z,3.20
2023-07-25T00:55:04.345Z,3.15
2023-07-25T00:57:32.937Z,3.05
2023-07-25T01:00:02.593Z,3.00
2023-07-25T01:02:30.815Z,3.42
2023-07-25T01:04:59.051Z,3.17
2023-07-25T01:07:27.394Z,4.28
2023-07-25T01:09:55.535Z,3.10
2023-07-25T01:12:25.490Z,3.08
2023-07-25T01:14:53.738Z,3.45
2023-07-25T01:17:25.157Z,3.13
2023-07-25T01:19:54.653Z,2.95
2023-07-25T01:22:23.885Z,3.40
2023-07-25T01:24:57.401Z,3.13
2023-07-25T01:27:25.516Z,3.53
2023-07-25T01:29:53.627Z,3.20
2023-07-25T01:32:21.975Z,3.30
2023-07-25T01:34:50.135Z,3.03
2023-07-25T01:37:18.258Z,3.10
2023-07-25T01:39:46.397Z,3.00
2023-07-25T01:42:15.917Z,3.50
2023-07-25T01:44:44.077Z,3.38
2023-07-25T01:47:12.313Z,4.30
2023-07-25T01:49:40.481Z,4.25
2023-07-25T01:52:09.458Z,3.55
2023-07-25T01:54:37.581Z,3.63
2023-07-25T01:57:06.380Z,3.80
2023-07-25T01:59:35.896Z,3.42
2023-07-25T02:02:04.071Z,4.03
2023-07-25T02:04:32.246Z,3.70
2023-07-25T02:07:00.416Z,3.92
2023-07-25T02:09:28.587Z,4.53
2023-07-25T02:11:56.735Z,3.67
2023-07-25T02:14:24.896Z,4.05
2023-07-25T02:16:54.656Z,4.25
2023-07-25T02:19:22.807Z,4.30
2023-07-25T02:21:50.941Z,4.07
2023-07-25T02:24:19.119Z,3.80
2023-07-25T02:26:47.292Z,4.05
2023-07-25T02:29:15.413Z,4.00
2023-07-25T02:31:43.557Z,3.33
2023-07-25T02:34:13.595Z,3.78
2023-07-25T02:36:41.754Z,3.80
2023-07-25T02:39:09.991Z,3.85
2023-07-25T02:41:38.192Z,4.05
2023-07-25T02:44:06.746Z,3.85
2023-07-25T02:46:34.964Z,4.20
2023-07-25T02:49:03.170Z,4.35
2023-07-25T02:51:32.955Z,3.75
2023-07-25T02:54:01.210Z,3.70
2023-07-25T02:56:29.915Z,3.65
2023-07-25T02:58:58.156Z,3.90
2023-07-25T03:01:26.496Z,3.60
2023-07-25T03:03:54.658Z,4.25
2023-07-25T03:06:22.765Z,4.38
2023-07-25T03:08:52.289Z,4.40
2023-07-25T03:11:20.407Z,3.88
2023-07-25T03:13:48.549Z,4.28
2023-07-25T03:16:16.761Z,4.63
2023-07-25T03:18:44.970Z,4.40
2023-07-25T03:21:13.148Z,4.65
2023-07-25T03:23:41.257Z,4.55
2023-07-25T03:26:10.785Z,3.90
2023-07-25T03:28:39.039Z,4.20
2023-07-25T03:31:07.212Z,4.38
2023-07-25T03:33:35.353Z,4.68
2023-07-25T03:36:03.721Z,4.22
2023-07-25T03:38:31.825Z,4.70
2023-07-25T03:40:59.963Z,4.32
2023-07-25T03:43:29.540Z,4.30
2023-07-25T03:45:57.812Z,4.75
2023-07-25T03:48:26.010Z,4.28
2023-07-25T03:50:54.147Z,4.25
2023-07-25T03:53:22.631Z,4.20
2023-07-25T03:55:50.860Z,4.30
2023-07-25T03:58:18.967Z,3.78
2023-07-25T04:00:48.468Z,3.90
2023-07-25T04:03:16.617Z,3.97
2023-07-25T04:05:44.816Z,4.43
2023-07-25T04:08:12.941Z,4.20
2023-07-25T04:10:41.057Z,4.65
2023-07-25T04:13:09.449Z,4.47
2023-07-25T04:15:37.568Z,4.40
2023-07-25T04:18:07.083Z,4.28
2023-07-25T04:20:36.288Z,5.20
2023-07-25T04:23:04.412Z,4.85
2023-07-25T04:25:32.532Z,5.57
2023-07-25T04:28:00.638Z,5.20
2023-07-25T04:30:28.792Z,5.07
2023-07-25T04:32:56.907Z,5.93
2023-07-25T04:35:26.517Z,5.75
2023-07-25T04:37:54.693Z,6.40
2023-07-25T04:40:22.875Z,6.28
2023-07-25T04:42:50.980Z,6.82
2023-07-25T04:45:19.262Z,6.65
2023-07-25T04:47:47.390Z,6.03
2023-07-25T04:50:15.514Z,6.13
2023-07-25T04:52:45.016Z,6.38
2023-07-25T04:55:13.189Z,6.65
2023-07-25T04:57:41.334Z,6.28
2023-07-25T05:00:10.361Z,6.25
2023-07-25T05:02:38.543Z,5.75
2023-07-25T05:05:07.639Z,5.95
2023-07-25T05:07:35.890Z,6.72
2023-07-25T05:10:06.115Z,6.53
2023-07-25T05:12:34.242Z,5.80
2023-07-25T05:15:02.379Z,6.18
2023-07-25T05:17:30.543Z,7.00
2023-07-25T05:19:58.688Z,5.85
2023-07-25T05:22:26.815Z,5.95
2023-07-25T05:24:55.211Z,7.38
2023-07-25T05:27:24.922Z,7.18
2023-07-25T05:29:53.118Z,6.35
2023-07-25T05:32:23.451Z,7.30
2023-07-25T05:34:51.654Z,6.35
2023-07-25T05:37:20.419Z,6.95
2023-07-25T05:39:48.504Z,6.28
2023-07-25T05:42:16.650Z,6.13
2023-07-25T05:44:46.150Z,5.95
2023-07-25T05:47:14.277Z,5.82
2023-07-25T05:49:42.576Z,6.35
2023-07-25T05:52:10.700Z,6.18
2023-07-25T05:54:38.801Z,6.00
2023-07-25T05:57:08.438Z,6.22
2023-07-25T05:59:36.605Z,5.95
2023-07-25T06:02:06.673Z,5.80
2023-07-25T06:04:34.790Z,6.63
2023-07-25T06:07:02.948Z,6.93
2023-07-25T06:09:31.078Z,6.97
2023-07-25T06:12:00.856Z,5.97
2023-07-25T06:14:28.987Z,6.57
2023-07-25T06:16:57.149Z,5.43
2023-07-25T06:19:26.725Z,5.80
2023-07-25T06:21:54.930Z,5.90
2023-07-25T06:24:23.105Z,5.30
2023-07-25T06:26:51.274Z,6.05
2023-07-25T06:29:19.401Z,5.22
2023-07-25T06:31:47.580Z,6.25
2023-07-25T06:34:15.677Z,5.63
2023-07-25T06:36:45.229Z,5.45
2023-07-25T06:39:13.434Z,5.78
2023-07-25T06:41:41.619Z,5.28
2023-07-25T06:44:09.797Z,6.05
2023-07-25T06:46:38.080Z,5.45
2023-07-25T06:49:06.281Z,5.28
2023-07-25T06:51:34.519Z,18.45
2023-07-25T06:54:04.112Z,9.48
2023-07-25T06:56:32.229Z,7.18
2023-07-25T06:59:01.914Z,6.72
2023-07-25T07:01:30.494Z,6.43
2023-07-25T07:03:58.897Z,7.55
2023-07-25T07:06:27.000Z,7.25
2023-07-25T07:08:55.104Z,7.82
2023-07-25T07:11:24.784Z,7.65
2023-07-25T07:13:53.184Z,7.63
2023-07-25T07:16:21.350Z,7.45
2023-07-25T07:18:49.485Z,7.10
2023-07-25T07:21:17.614Z,6.57
2023-07-25T07:23:53.205Z,6.95
2023-07-25T07:26:30.965Z,7.28
2023-07-25T07:29:04.534Z,7.78
2023-07-25T07:31:35.604Z,7.18
2023-07-25T07:34:14.501Z,7.47
2023-07-25T07:36:42.900Z,7.65
2023-07-25T07:39:11.224Z,8.40
2023-07-25T07:41:40.928Z,7.97
2023-07-25T07:44:09.303Z,8.27
2023-07-25T07:46:37.891Z,9.18
2023-07-25T07:49:06.170Z,8.25
2023-07-25T07:51:34.611Z,9.00
2023-07-25T07:54:03.161Z,10.40
2023-07-25T07:56:31.315Z,10.63
2023-07-25T07:59:00.895Z,9.48
2023-07-25T08:01:30.166Z,8.65
2023-07-25T08:03:58.812Z,9.32
2023-07-25T08:06:26.960Z,8.90
2023-07-25T08:08:55.341Z,8.68
2023-07-25T08:11:23.813Z,8.27
2023-07-25T08:13:52.136Z,8.73
2023-07-25T08:16:25.924Z,8.63
2023-07-25T08:18:54.334Z,9.35
2023-07-25T08:21:22.444Z,8.85
2023-07-25T08:23:50.721Z,9.40
2023-07-25T08:26:18.912Z,9.50
2023-07-25T08:28:48.564Z,10.20
2023-07-25T08:31:16.788Z,9.25
2023-07-25T08:33:46.363Z,10.05
2023-07-25T08:36:14.643Z,9.05
2023-07-25T08:38:43.488Z,8.55
2023-07-25T08:41:14.089Z,9.10
2023-07-25T08:43:44.559Z,8.60
2023-07-25T08:46:14.723Z,7.85
2023-07-25T08:48:45.034Z,7.72
2023-07-25T08:51:20.154Z,7.10
2023-07-25T08:53:54.904Z,6.70
2023-07-25T08:56:24.369Z,7.40
2023-07-25T08:58:53.236Z,7.07
2023-07-25T09:01:22.529Z,6.32
2023-07-25T09:03:54.476Z,6.35
2023-07-25T09:06:25.797Z,5.60
2023-07-25T09:08:53.972Z,5.70
2023-07-25T09:11:22.752Z,5.05
2023-07-25T09:13:51.354Z,4.25
2023-07-25T09:16:19.840Z,4.75
2023-07-25T09:18:48.378Z,4.28
2023-07-25T09:21:18.526Z,3.90
2023-07-25T09:23:53.267Z,5.00
2023-07-25T09:26:24.651Z,4.40
2023-07-25T09:28:55.930Z,4.22
2023-07-25T09:31:28.199Z,5.47
2023-07-25T09:33:57.654Z,4.10
2023-07-25T09:36:31.855Z,4.45
2023-07-25T09:39:00.510Z,4.95
2023-07-25T09:41:31.416Z,3.50
2023-07-25T09:44:06.284Z,3.03
2023-07-25T09:46:34.499Z,2.67
2023-07-25T09:49:04.122Z,2.67
2023-07-25T09:51:34.079Z,2.08
2023-07-25T09:54:06.540Z,2.05
2023-07-25T09:56:36.102Z,2.77
2023-07-25T09:59:08.454Z,2.38
2023-07-25T10:01:39.234Z,2.15
2023-07-25T10:04:08.488Z,1.98
2023-07-25T10:06:38.711Z,2.45
2023-07-25T10:09:07.790Z,1.90
2023-07-25T10:11:38.720Z,2.22
2023-07-25T10:14:08.899Z,1.77
2023-07-25T10:16:39.616Z,2.10
2023-07-25T10:19:08.606Z,1.77
2023-07-25T10:21:50.298Z,1.35
2023-07-25T10:24:19.689Z,1.50
2023-07-25T10:26:55.459Z,1.30
2023-07-25T10:29:47.876Z,1.50
2023-07-25T10:32:17.272Z,1.85
2023-07-25T10:34:50.138Z,1.67
2023-07-25T10:37:24.162Z,2.33
2023-07-25T10:40:06.193Z,1.80
2023-07-25T10:42:59.996Z,1.83
2023-07-25T10:45:56.615Z,1.40
2023-07-25T10:48:35.872Z,1.77
2023-07-25T10:51:07.805Z,1.50
2023-07-25T10:53:38.157Z,2.00
2023-07-25T10:56:17.239Z,2.03
2023-07-25T10:59:06.056Z,1.70
2023-07-25T11:01:37.436Z,1.83
2023-07-25T11:04:28.648Z,2.13
2023-07-25T11:06:58.680Z,1.60
2023-07-25T11:09:29.157Z,1.60
2023-07-25T11:11:58.129Z,1.42
2023-07-25T11:14:26.292Z,1.60
2023-07-25T11:16:56.050Z,1.33
2023-07-25T11:19:28.622Z,1.20
2023-07-25T11:21:57.042Z,1.27
2023-07-25T11:24:25.276Z,1.33
2023-07-25T11:26:54.813Z,1.38
2023-07-25T11:29:24.051Z,1.10
2023-07-25T11:31:52.350Z,1.67
2023-07-25T11:34:21.929Z,1.70
2023-07-25T11:36:50.185Z,1.70
2023-07-25T11:39:19.736Z,1.20
2023-07-25T11:41:48.164Z,1.65
2023-07-25T11:44:19.189Z,1.73
2023-07-25T11:46:50.675Z,1.40
2023-07-25T11:49:31.883Z,1.90
2023-07-25T11:52:08.866Z,2.65
2023-07-25T11:54:37.128Z,1.60
2023-07-25T11:57:07.704Z,2.10
2023-07-25T11:59:43.438Z,2.47
2023-07-25T12:02:13.951Z,1.90
2023-07-25T12:04:46.000Z,2.45
2023-07-25T12:07:15.029Z,2.60
2023-07-25T12:09:52.608Z,2.10
2023-07-25T12:12:21.612Z,2.25
2023-07-25T12:14:58.461Z,1.70
2023-07-25T12:17:44.657Z,2.00
2023-07-25T12:20:17.625Z,1.70
2023-07-25T12:22:46.379Z,1.63
2023-07-25T12:25:18.879Z,1.45
2023-07-25T12:27:48.459Z,1.73
2023-07-25T12:30:18.444Z,1.20
2023-07-25T12:32:46.717Z,1.77
2023-07-25T12:35:15.031Z,1.25
2023-07-25T12:37:43.157Z,1.42
2023-07-25T12:40:11.902Z,1.35
2023-07-25T12:42:40.008Z,1.58
2023-07-25T12:45:11.084Z,1.15
2023-07-25T12:47:41.241Z,1.30
2023-07-25T12:50:10.953Z,1.42
2023-07-25T12:52:39.391Z,1.10
2023-07-25T12:55:08.374Z,1.10
2023-07-25T12:57:36.658Z,0.88
2023-07-25T13:00:08.312Z,1.30
2023-07-25T13:02:37.995Z,0.88
2023-07-25T13:05:09.259Z,1.27
2023-07-25T13:07:37.573Z,1.17
2023-07-25T13:10:08.020Z,1.13
2023-07-25T13:12:36.714Z,1.00
2023-07-25T13:15:05.938Z,1.10
2023-07-25T13:17:34.475Z,1.10
2023-07-25T13:20:05.588Z,1.33
2023-07-25T13:22:35.147Z,1.25
2023-07-25T13:25:04.047Z,1.40
2023-07-25T13:27:32.326Z,1.30
2023-07-25T13:30:01.546Z,1.30
2023-07-25T13:32:29.909Z,1.50
2023-07-25T13:34:58.095Z,1.35
2023-07-25T13:37:26.212Z,1.65
2023-07-25T13:39:55.733Z,2.40
2023-07-25T13:42:24.505Z,1.58
2023-07-25T13:44:52.660Z,1.70
2023-07-25T13:47:20.815Z,1.42
2023-07-25T13:49:49.047Z,1.65
2023-07-25T13:52:17.441Z,1.38
2023-07-25T13:54:45.727Z,1.67
2023-07-25T13:57:15.313Z,1.42
2023-07-25T13:59:43.482Z,1.38
2023-07-25T14:02:11.798Z,1.13
2023-07-25T14:04:41.062Z,1.55
2023-07-25T14:07:09.381Z,1.13
2023-07-25T14:09:37.513Z,1.85
2023-07-25T14:12:07.015Z,1.30
2023-07-25T14:14:37.194Z,1.17
2023-07-25T14:17:06.928Z,1.17
2023-07-25T14:19:35.168Z,1.27
2023-07-25T14:22:03.310Z,1.40
2023-07-25T14:24:32.000Z,1.65
2023-07-25T14:27:00.168Z,1.58
2023-07-25T14:29:28.313Z,1.70
2023-07-25T14:31:59.357Z,1.50
2023-07-25T14:34:27.640Z,1.42
2023-07-25T14:36:55.767Z,1.48
2023-07-25T14:39:23.963Z,1.50
2023-07-25T14:41:52.188Z,1.20
2023-07-25T14:44:20.708Z,1.20
2023-07-25T14:46:48.942Z,0.90
2023-07-25T14:49:18.548Z,1.40
2023-07-25T14:51:46.827Z,1.00
2023-07-25T14:54:14.945Z,1.10
2023-07-25T14:56:43.083Z,1.20
2023-07-25T14:59:12.984Z,1.30
2023-07-25T15:01:41.194Z,1.10
2023-07-25T15:04:09.360Z,1.00
2023-07-25T15:06:38.849Z,1.00
2023-07-25T15:09:07.048Z,1.00
2023-07-25T15:11:35.736Z,1.27
2023-07-25T15:14:03.924Z,1.10
2023-07-25T15:16:32.841Z,1.33
2023-07-25T15:19:01.329Z,1.42
2023-07-25T15:21:29.656Z,1.13
2023-07-25T15:23:59.399Z,1.10
2023-07-25T15:26:27.632Z,1.10
2023-07-25T15:28:56.080Z,1.17
2023-07-25T15:31:24.247Z,1.05
2023-07-25T15:33:52.497Z,1.15
2023-07-25T15:36:20.624Z,0.90
2023-07-25T15:38:49.168Z,0.70
2023-07-25T15:41:18.730Z,1.25
2023-07-25T15:43:47.052Z,0.80
2023-07-25T15:46:15.234Z,0.75
2023-07-25T15:48:43.366Z,0.60
2023-07-25T15:51:11.558Z,1.02
2023-07-25T15:53:40.755Z,0.70
2023-07-25T15:56:08.877Z,0.75
2023-07-25T15:58:38.433Z,0.95
2023-07-25T16:01:06.913Z,1.00
2023-07-25T16:03:35.164Z,0.90
2023-07-25T16:06:03.423Z,0.80
2023-07-25T16:08:31.620Z,0.80
2023-07-25T16:10:59.736Z,0.88
2023-07-25T16:13:28.105Z,1.02
2023-07-25T16:15:57.612Z,0.80
2023-07-25T16:18:25.718Z,1.10
2023-07-25T16:20:53.903Z,1.38
2023-07-25T16:23:22.044Z,0.68
2023-07-25T16:25:51.787Z,1.00
2023-07-25T16:28:18.898Z,0.98
2023-07-25T16:30:47.124Z,0.55
2023-07-25T16:33:16.641Z,0.77
2023-07-25T16:35:44.877Z,0.82
2023-07-25T16:38:13.267Z,0.90
2023-07-25T16:40:41.620Z,0.80
2023-07-25T16:43:09.799Z,0.52
2023-07-25T16:45:37.918Z,0.68
2023-07-25T16:48:06.616Z,0.50
2023-07-25T16:50:36.343Z,0.73
2023-07-25T16:53:06.696Z,0.85
2023-07-25T16:55:35.186Z,0.60
2023-07-25T16:58:03.367Z,0.60
2023-07-25T17:00:31.635Z,2.22
2023-07-25T17:02:59.838Z,1.60
2023-07-25T17:05:28.093Z,1.63
2023-07-25T17:07:58.561Z,1.00
2023-07-25T17:10:26.801Z,0.90
2023-07-25T17:12:54.949Z,0.70
2023-07-25T17:15:23.330Z,0.85
2023-07-25T17:17:51.608Z,0.80
2023-07-25T17:20:22.159Z,0.70
2023-07-25T17:22:51.184Z,0.65
2023-07-25T17:25:20.764Z,0.90
2023-07-25T17:27:48.893Z,0.60
2023-07-25T17:30:18.073Z,0.93
2023-07-25T17:32:47.049Z,1.08
2023-07-25T17:35:23.977Z,0.93
2023-07-25T17:37:52.479Z,0.93
2023-07-25T17:40:22.029Z,1.05
2023-07-25T17:42:50.254Z,1.23
2023-07-25T17:45:19.106Z,1.08
2023-07-25T17:47:47.279Z,0.65
2023-07-25T17:50:15.541Z,0.90
2023-07-25T17:52:43.700Z,0.70
2023-07-25T17:55:11.873Z,1.73
2023-07-25T17:57:41.429Z,1.80
2023-07-25T18:00:10.590Z,1.85
2023-07-25T18:02:38.856Z,1.80
2023-07-25T18:05:07.750Z,1.15
2023-07-25T18:07:36.206Z,1.20
2023-07-25T18:10:04.431Z,1.13
2023-07-25T18:12:32.580Z,1.60
2023-07-25T18:15:02.242Z,2.72
2023-07-25T18:17:30.413Z,1.30
2023-07-25T18:19:58.645Z,3.00
2023-07-25T18:22:28.898Z,2.30
2023-07-25T18:24:59.811Z,3.08
2023-07-25T18:27:27.979Z,3.10
2023-07-25T18:29:56.563Z,2.58
2023-07-25T18:32:26.158Z,3.70
2023-07-25T18:34:54.362Z,3.13
2023-07-25T18:37:22.529Z,1.45
2023-07-25T18:39:50.629Z,1.50
2023-07-25T18:42:22.408Z,1.98
2023-07-25T18:44:50.534Z,1.42
2023-07-25T18:47:33.622Z,1.38
2023-07-25T18:50:04.685Z,1.77
2023-07-25T18:52:32.891Z,1.80
2023-07-25T18:55:01.053Z,1.67
2023-07-25T18:57:29.368Z,1.70
2023-07-25T18:59:58.223Z,1.40
2023-07-25T19:02:26.459Z,1.33
2023-07-25T19:04:55.047Z,1.45
2023-07-25T19:07:24.642Z,1.38
2023-07-25T19:09:53.063Z,1.00
2023-07-25T19:12:22.464Z,1.85
2023-07-25T19:14:50.826Z,1.60
2023-07-25T19:17:19.049Z,2.42
2023-07-25T19:19:47.290Z,2.47
2023-07-25T19:22:15.799Z,2.75
2023-07-25T19:24:47.753Z,2.58
2023-07-25T19:27:16.805Z,2.20
2023-07-25T19:29:45.078Z,1.80
2023-07-25T19:32:14.966Z,2.20
2023-07-25T19:34:43.405Z,2.42
2023-07-25T19:37:11.633Z,1.55
2023-07-25T19:39:39.986Z,1.80
2023-07-25T19:42:10.637Z,1.33
2023-07-25T19:44:39.002Z,1.08
2023-07-25T19:47:07.424Z,1.15
2023-07-25T19:49:35.979Z,1.20
2023-07-25T19:52:04.227Z,1.20
2023-07-25T19:54:32.389Z,1.13
2023-07-25T19:57:00.761Z,1.00
2023-07-25T19:59:30.236Z,1.60
2023-07-25T20:01:58.350Z,1.00
2023-07-25T20:04:26.505Z,0.90
2023-07-25T20:06:54.904Z,0.85
2023-07-25T20:09:23.497Z,0.60
2023-07-25T20:11:51.679Z,1.15
2023-07-25T20:14:20.582Z,1.40
2023-07-25T20:16:51.973Z,0.93
2023-07-25T20:19:24.120Z,0.70
2023-07-25T20:21:52.805Z,1.33
2023-07-25T20:24:20.932Z,0.70
2023-07-25T20:26:49.249Z,0.95
2023-07-25T20:29:17.370Z,0.73
2023-07-25T20:31:45.597Z,0.75
2023-07-25T20:34:15.474Z,1.00
2023-07-25T20:36:43.595Z,0.90
2023-07-25T20:39:11.814Z,0.98
2023-07-25T20:41:39.991Z,2.20
2023-07-25T20:44:08.210Z,1.85
2023-07-25T20:46:36.698Z,0.90
2023-07-25T20:49:05.283Z,0.77
2023-07-25T20:51:34.828Z,1.55
2023-07-25T20:54:03.303Z,1.33
2023-07-25T20:56:31.846Z,1.05
2023-07-25T20:59:00.931Z,0.80
2023-07-25T21:01:29.144Z,2.08
2023-07-25T21:03:57.361Z,1.83
2023-07-25T21:06:26.742Z,1.88
2023-07-25T21:08:56.294Z,0.90
2023-07-25T21:11:24.770Z,0.60
2023-07-25T21:13:53.007Z,0.60
2023-07-25T21:16:22.449Z,0.80
2023-07-25T21:18:50.861Z,0.68
2023-07-25T21:21:19.371Z,0.70
2023-07-25T21:23:47.529Z,0.80
2023-07-25T21:26:17.045Z,0.95
2023-07-25T21:28:45.274Z,0.52
2023-07-25T21:31:13.427Z,0.50
2023-07-25T21:33:41.570Z,0.70
2023-07-25T21:36:11.774Z,0.73
2023-07-25T21:38:41.498Z,0.40
2023-07-25T21:41:13.314Z,0.68
2023-07-25T21:43:43.439Z,0.70
2023-07-25T21:46:11.969Z,0.60
2023-07-25T21:48:40.165Z,0.60
2023-07-25T21:51:08.956Z,0.75
2023-07-25T21:53:37.268Z,0.70
2023-07-25T21:56:05.884Z,0.73
2023-07-25T21:58:34.054Z,0.98
2023-07-25T22:01:03.693Z,0.80
2023-07-25T22:03:32.977Z,0.60
2023-07-25T22:06:01.661Z,0.60
2023-07-25T22:08:29.825Z,0.75
2023-07-25T22:10:58.064Z,0.68
2023-07-25T22:13:27.664Z,0.80
2023-07-25T22:15:55.866Z,0.60
2023-07-25T22:18:25.397Z,0.60
2023-07-25T22:20:53.610Z,0.70
2023-07-25T22:23:22.195Z,0.70
2023-07-25T22:25:50.387Z,0.75
2023-07-25T22:28:18.702Z,0.80
2023-07-25T22:30:46.889Z,1.00
2023-07-25T22:33:15.018Z,0.60
2023-07-25T22:35:44.557Z,0.85
2023-07-25T22:38:12.681Z,1.25
2023-07-25T22:40:41.941Z,1.30
2023-07-25T22:43:10.080Z,0.70
2023-07-25T22:45:38.224Z,1.10
2023-07-25T22:48:07.009Z,0.77
2023-07-25T22:50:35.280Z,1.17
2023-07-25T22:53:04.811Z,0.90
2023-07-25T22:55:34.497Z,0.70
2023-07-25T22:58:02.682Z,0.65
2023-07-25T23:00:30.807Z,0.75
2023-07-25T23:02:59.045Z,0.88
2023-07-25T23:05:27.237Z,0.90
2023-07-25T23:07:55.364Z,0.80
2023-07-25T23:10:24.904Z,0.80
2023-07-25T23:12:53.085Z,1.00
2023-07-25T23:15:21.250Z,0.93
2023-07-25T23:17:49.438Z,0.88
2023-07-25T23:20:18.019Z,1.10
2023-07-25T23:22:46.176Z,1.50
2023-07-25T23:25:14.295Z,1.17
2023-07-25T23:27:43.817Z,1.00
2023-07-25T23:30:13.145Z,1.08
2023-07-25T23:32:41.507Z,1.13
2023-07-25T23:35:10.728Z,1.10
2023-07-25T23:37:38.853Z,1.27
2023-07-25T23:40:09.360Z,1.20
2023-07-25T23:42:37.552Z,1.38
2023-07-25T23:45:08.234Z,1.17
2023-07-25T23:47:36.403Z,1.40
2023-07-25T23:50:06.241Z,1.38
2023-07-25T23:52:35.094Z,1.17
2023-07-25T23:55:03.461Z,1.40
2023-07-25T23:57:31.596Z,1.30
2023-07-25T23:59:59.757Z,1.13
